sensor_id;sensor_type;location;lat;lon;timestamp;pressure;altitude;pressure_sealevel;temperature;humidity
72038;BME280;59900;50.788;12.904;2023-12-22T00:00:26;95158.84;;;3.43;86.49
72038;BME280;59900;50.788;12.904;2023-12-22T00:02:51;95146.47;;;3.38;86.70
72038;BME280;59900;50.788;12.904;2023-12-22T00:05:16;95150.28;;;3.35;86.85
72038;BME280;59900;50.788;12.904;2023-12-22T00:07:41;95155.09;;;3.32;86.55
72038;BME280;59900;50.788;12.904;2023-12-22T00:10:07;95158.72;;;3.31;86.73
72038;BME280;59900;50.788;12.904;2023-12-22T00:12:32;95169.53;;;3.28;86.22
72038;BME280;59900;50.788;12.904;2023-12-22T00:14:57;95191.50;;;3.25;86.91
72038;BME280;59900;50.788;12.904;2023-12-22T00:17:23;95175.94;;;3.25;86.57
72038;BME280;59900;50.788;12.904;2023-12-22T00:19:48;95188.69;;;3.27;86.82
72038;BME280;59900;50.788;12.904;2023-12-22T00:22:13;95178.50;;;3.25;86.55
72038;BME280;59900;50.788;12.904;2023-12-22T00:24:38;95212.84;;;3.27;85.57
72038;BME280;59900;50.788;12.904;2023-12-22T00:27:05;95183.06;;;3.30;84.63
72038;BME280;59900;50.788;12.904;2023-12-22T00:29:31;95220.78;;;3.32;83.58
72038;BME280;59900;50.788;12.904;2023-12-22T00:31:57;95193.44;;;3.36;83.58
72038;BME280;59900;50.788;12.904;2023-12-22T00:34:22;95192.44;;;3.37;83.26
72038;BME280;59900;50.788;12.904;2023-12-22T00:36:48;95181.81;;;3.39;83.74
72038;BME280;59900;50.788;12.904;2023-12-22T00:39:13;95211.19;;;3.39;82.84
72038;BME280;59900;50.788;12.904;2023-12-22T00:41:38;95194.38;;;3.42;82.40
72038;BME280;59900;50.788;12.904;2023-12-22T00:44:04;95201.38;;;3.42;81.73
72038;BME280;59900;50.788;12.904;2023-12-22T00:46:29;95207.16;;;3.44;81.18
72038;BME280;59900;50.788;12.904;2023-12-22T00:48:54;95200.38;;;3.43;80.78
72038;BME280;59900;50.788;12.904;2023-12-22T00:51:20;95209.75;;;3.44;80.96
72038;BME280;59900;50.788;12.904;2023-12-22T00:53:45;95204.56;;;3.44;79.67
72038;BME280;59900;50.788;12.904;2023-12-22T00:56:10;95217.34;;;3.45;80.03
72038;BME280;59900;50.788;12.904;2023-12-22T00:58:38;95224.53;;;3.43;79.53
72038;BME280;59900;50.788;12.904;2023-12-22T01:01:03;95220.34;;;3.42;79.41
72038;BME280;59900;50.788;12.904;2023-12-22T01:03:28;95225.72;;;3.40;78.78
72038;BME280;59900;50.788;12.904;2023-12-22T01:05:54;95232.94;;;3.38;78.40
72038;BME280;59900;50.788;12.904;2023-12-22T01:08:19;95226.75;;;3.39;77.14
72038;BME280;59900;50.788;12.904;2023-12-22T01:10:45;95249.72;;;3.43;77.18
72038;BME280;59900;50.788;12.904;2023-12-22T01:13:11;95234.31;;;3.41;77.27
72038;BME280;59900;50.788;12.904;2023-12-22T01:15:36;95216.38;;;3.39;76.67
72038;BME280;59900;50.788;12.904;2023-12-22T01:18:01;95251.53;;;3.35;76.49
72038;BME280;59900;50.788;12.904;2023-12-22T01:20:26;95224.19;;;3.33;76.08
72038;BME280;59900;50.788;12.904;2023-12-22T01:22:52;95250.72;;;3.35;75.35
72038;BME280;59900;50.788;12.904;2023-12-22T01:25:17;95250.72;;;3.35;75.68
72038;BME280;59900;50.788;12.904;2023-12-22T01:27:42;95245.16;;;3.31;75.48
72038;BME280;59900;50.788;12.904;2023-12-22T01:30:08;95278.91;;;3.31;75.45
72038;BME280;59900;50.788;12.904;2023-12-22T01:32:33;95243.16;;;3.33;75.10
72038;BME280;59900;50.788;12.904;2023-12-22T01:35:01;95257.53;;;3.36;74.90
72038;BME280;59900;50.788;12.904;2023-12-22T01:37:32;95218.59;;;3.36;74.68
72038;BME280;59900;50.788;12.904;2023-12-22T01:39:57;95230.34;;;3.38;74.67
72038;BME280;59900;50.788;12.904;2023-12-22T01:42:23;95236.56;;;3.37;74.32
72038;BME280;59900;50.788;12.904;2023-12-22T01:44:48;95229.34;;;3.39;74.86
72038;BME280;59900;50.788;12.904;2023-12-22T01:47:14;95226.19;;;3.37;74.97
72038;BME280;59900;50.788;12.904;2023-12-22T01:49:39;95235.34;;;3.40;73.79
72038;BME280;59900;50.788;12.904;2023-12-22T01:52:05;95235.94;;;3.42;74.45
72038;BME280;59900;50.788;12.904;2023-12-22T01:54:31;95215.97;;;3.43;74.44
72038;BME280;59900;50.788;12.904;2023-12-22T01:56:56;95223.13;;;3.40;74.08
72038;BME280;59900;50.788;12.904;2023-12-22T01:59:22;95219.53;;;3.42;73.44
72038;BME280;59900;50.788;12.904;2023-12-22T02:01:47;95184.59;;;3.44;73.73
72038;BME280;59900;50.788;12.904;2023-12-22T02:04:14;95223.34;;;3.46;73.29
72038;BME280;59900;50.788;12.904;2023-12-22T02:06:40;95219.94;;;3.45;74.01
72038;BME280;59900;50.788;12.904;2023-12-22T02:09:05;95201.53;;;3.47;73.96
72038;BME280;59900;50.788;12.904;2023-12-22T02:11:31;95204.13;;;3.47;74.00
72038;BME280;59900;50.788;12.904;2023-12-22T02:13:56;95205.75;;;3.48;73.57
72038;BME280;59900;50.788;12.904;2023-12-22T02:16:46;95204.13;;;3.47;74.09
72038;BME280;59900;50.788;12.904;2023-12-22T02:22:04;95196.34;;;3.47;73.66
72038;BME280;59900;50.788;12.904;2023-12-22T02:24:30;95204.34;;;3.45;74.29
72038;BME280;59900;50.788;12.904;2023-12-22T02:27:02;95220.94;;;3.44;73.88
72038;BME280;59900;50.788;12.904;2023-12-22T02:29:30;95219.94;;;3.45;74.10
72038;BME280;59900;50.788;12.904;2023-12-22T02:31:58;95217.53;;;3.44;73.70
72038;BME280;59900;50.788;12.904;2023-12-22T02:34:27;95224.53;;;3.43;74.13
72038;BME280;59900;50.788;12.904;2023-12-22T02:36:53;95219.13;;;3.45;74.06
72038;BME280;59900;50.788;12.904;2023-12-22T02:39:19;95217.53;;;3.44;74.39
72038;BME280;59900;50.788;12.904;2023-12-22T02:41:45;95206.56;;;3.42;74.68
72038;BME280;59900;50.788;12.904;2023-12-22T02:44:11;95227.34;;;3.42;74.50
72038;BME280;59900;50.788;12.904;2023-12-22T02:46:36;95213.38;;;3.43;74.47
72038;BME280;59900;50.788;12.904;2023-12-22T02:49:01;95208.16;;;3.43;75.02
72038;BME280;59900;50.788;12.904;2023-12-22T02:51:27;95245.50;;;3.42;74.85
72038;BME280;59900;50.788;12.904;2023-12-22T02:53:52;95216.75;;;3.43;74.28
72038;BME280;59900;50.788;12.904;2023-12-22T02:56:17;95208.75;;;3.45;74.56
72038;BME280;59900;50.788;12.904;2023-12-22T02:58:42;95200.97;;;3.45;75.21
72038;BME280;59900;50.788;12.904;2023-12-22T03:01:08;95217.53;;;3.44;75.29
72038;BME280;59900;50.788;12.904;2023-12-22T03:03:33;95206.38;;;3.43;75.45
72038;BME280;59900;50.788;12.904;2023-12-22T03:05:58;95197.19;;;3.40;75.49
72038;BME280;59900;50.788;12.904;2023-12-22T03:08:23;95215.56;;;3.39;75.57
72038;BME280;59900;50.788;12.904;2023-12-22T03:10:49;95192.00;;;3.40;76.02
72038;BME280;59900;50.788;12.904;2023-12-22T03:13:14;95200.78;;;3.39;76.29
72038;BME280;59900;50.788;12.904;2023-12-22T03:15:39;95211.19;;;3.39;76.27
72038;BME280;59900;50.788;12.904;2023-12-22T03:18:04;95227.56;;;3.40;75.30
72038;BME280;59900;50.788;12.904;2023-12-22T03:20:30;95223.94;;;3.41;75.63
72038;BME280;59900;50.788;12.904;2023-12-22T03:22:55;95207.38;;;3.42;75.38
72038;BME280;59900;50.788;12.904;2023-12-22T03:25:20;95199.34;;;3.44;75.82
72038;BME280;59900;50.788;12.904;2023-12-22T03:27:45;95224.75;;;3.42;75.68
72038;BME280;59900;50.788;12.904;2023-12-22T03:30:11;95222.94;;;3.42;75.66
72038;BME280;59900;50.788;12.904;2023-12-22T03:32:36;95204.56;;;3.44;76.25
72038;BME280;59900;50.788;12.904;2023-12-22T03:35:02;95220.34;;;3.42;76.17
72038;BME280;59900;50.788;12.904;2023-12-22T03:37:27;95217.53;;;3.44;76.06
72038;BME280;59900;50.788;12.904;2023-12-22T03:39:52;95203.56;;;3.45;75.94
72038;BME280;59900;50.788;12.904;2023-12-22T03:42:17;95202.75;;;3.44;75.13
72038;BME280;59900;50.788;12.904;2023-12-22T03:44:43;95204.34;;;3.45;76.23
72038;BME280;59900;50.788;12.904;2023-12-22T03:47:08;95204.13;;;3.47;76.38
72038;BME280;59900;50.788;12.904;2023-12-22T03:49:33;95202.75;;;3.44;76.12
72038;BME280;59900;50.788;12.904;2023-12-22T03:51:59;95223.53;;;3.44;75.98
72038;BME280;59900;50.788;12.904;2023-12-22T03:54:24;95250.69;;;3.42;77.33
72038;BME280;59900;50.788;12.904;2023-12-22T03:56:49;95259.59;;;3.14;83.13
72038;BME280;59900;50.788;12.904;2023-12-22T03:59:14;95241.56;;;2.68;90.38
72038;BME280;59900;50.788;12.904;2023-12-22T04:01:43;95238.25;;;2.29;95.04
72038;BME280;59900;50.788;12.904;2023-12-22T04:04:08;95234.66;;;2.10;96.72
72038;BME280;59900;50.788;12.904;2023-12-22T04:06:38;95233.06;;;1.89;99.56
72038;BME280;59900;50.788;12.904;2023-12-22T04:09:03;95230.47;;;1.83;100.00
72038;BME280;59900;50.788;12.904;2023-12-22T04:11:28;95204.75;;;1.68;100.00
72038;BME280;59900;50.788;12.904;2023-12-22T04:13:53;95213.72;;;1.59;100.00
72038;BME280;59900;50.788;12.904;2023-12-22T04:16:19;95213.13;;;1.57;100.00
72038;BME280;59900;50.788;12.904;2023-12-22T04:18:44;95191.59;;;1.56;100.00
72038;BME280;59900;50.788;12.904;2023-12-22T04:21:09;95194.59;;;1.60;100.00
72038;BME280;59900;50.788;12.904;2023-12-22T04:23:34;95197.19;;;1.60;100.00
72038;BME280;59900;50.788;12.904;2023-12-22T04:26:01;95211.13;;;1.65;100.00
72038;BME280;59900;50.788;12.904;2023-12-22T04:28:27;95217.69;;;1.68;100.00
72038;BME280;59900;50.788;12.904;2023-12-22T04:30:52;95243.19;;;1.64;100.00
72038;BME280;59900;50.788;12.904;2023-12-22T04:33:17;95216.31;;;1.65;100.00
72038;BME280;59900;50.788;12.904;2023-12-22T04:35:43;95208.34;;;1.60;100.00
72038;BME280;59900;50.788;12.904;2023-12-22T04:38:08;95236.59;;;1.62;100.00
72038;BME280;59900;50.788;12.904;2023-12-22T04:40:33;95230.25;;;1.71;100.00
72038;BME280;59900;50.788;12.904;2023-12-22T04:42:58;95272.09;;;1.75;100.00
72038;BME280;59900;50.788;12.904;2023-12-22T04:45:24;95236.44;;;1.83;100.00
72038;BME280;59900;50.788;12.904;2023-12-22T04:47:49;95214.13;;;1.89;100.00
72038;BME280;59900;50.788;12.904;2023-12-22T04:50:14;95229.47;;;1.97;99.94
72038;BME280;59900;50.788;12.904;2023-12-22T04:52:39;95224.09;;;1.98;99.14
72038;BME280;59900;50.788;12.904;2023-12-22T04:55:05;95234.06;;;2.01;98.07
72038;BME280;59900;50.788;12.904;2023-12-22T04:57:30;95204.97;;;2.06;96.64
72038;BME280;59900;50.788;12.904;2023-12-22T04:59:55;95247.63;;;2.10;95.24
72038;BME280;59900;50.788;12.904;2023-12-22T05:02:20;95230.28;;;2.10;95.78
72038;BME280;59900;50.788;12.904;2023-12-22T05:04:46;95225.28;;;2.09;96.37
72038;BME280;59900;50.788;12.904;2023-12-22T05:07:11;95266.16;;;2.07;95.56
72038;BME280;59900;50.788;12.904;2023-12-22T05:09:36;95224.09;;;2.11;95.71
72038;BME280;59900;50.788;12.904;2023-12-22T05:12:02;95216.75;;;2.08;95.68
72038;BME280;59900;50.788;12.904;2023-12-22T05:14:28;95221.13;;;2.08;95.65
72038;BME280;59900;50.788;12.904;2023-12-22T05:16:53;95237.66;;;2.07;95.42
72038;BME280;59900;50.788;12.904;2023-12-22T05:19:21;95259.78;;;2.09;92.52
72038;BME280;59900;50.788;12.904;2023-12-22T05:21:46;95243.41;;;2.09;93.05
72038;BME280;59900;50.788;12.904;2023-12-22T05:24:11;95236.47;;;2.09;93.28
72038;BME280;59900;50.788;12.904;2023-12-22T05:26:36;95236.28;;;2.11;90.80
72038;BME280;59900;50.788;12.904;2023-12-22T05:29:02;95226.50;;;2.13;90.56
72038;BME280;59900;50.788;12.904;2023-12-22T05:31:27;95237.66;;;2.13;90.46
72038;BME280;59900;50.788;12.904;2023-12-22T05:33:52;95229.88;;;2.13;90.20
72038;BME280;59900;50.788;12.904;2023-12-22T05:36:18;95241.81;;;2.14;89.45
72038;BME280;59900;50.788;12.904;2023-12-22T05:38:43;95231.47;;;2.14;89.29
72038;BME280;59900;50.788;12.904;2023-12-22T05:41:08;95237.84;;;2.12;89.14
72038;BME280;59900;50.788;12.904;2023-12-22T05:43:34;95233.47;;;2.12;90.17
72038;BME280;59900;50.788;12.904;2023-12-22T05:45:59;95271.53;;;2.05;90.21
72038;BME280;59900;50.788;12.904;2023-12-22T05:48:28;95245.44;;;2.07;90.31
72038;BME280;59900;50.788;12.904;2023-12-22T05:50:56;95244.44;;;2.01;90.66
72038;BME280;59900;50.788;12.904;2023-12-22T05:53:21;95245.63;;;1.99;90.79
72038;BME280;59900;50.788;12.904;2023-12-22T05:55:46;95259.56;;;1.98;90.28
72038;BME280;59900;50.788;12.904;2023-12-22T05:58:11;95245.63;;;1.99;90.63
72038;BME280;59900;50.788;12.904;2023-12-22T06:00:37;95246.81;;;1.96;90.46
72038;BME280;59900;50.788;12.904;2023-12-22T06:03:02;95233.06;;;1.96;91.00
72038;BME280;59900;50.788;12.904;2023-12-22T06:05:27;95235.84;;;1.94;91.12
72038;BME280;59900;50.788;12.904;2023-12-22T06:07:53;95247.22;;;1.93;91.99
72038;BME280;59900;50.788;12.904;2023-12-22T06:10:18;95238.66;;;1.93;92.78
72038;BME280;59900;50.788;12.904;2023-12-22T06:12:44;95246.59;;;1.91;92.57
72038;BME280;59900;50.788;12.904;2023-12-22T06:15:09;95250.22;;;1.90;93.08
72038;BME280;59900;50.788;12.904;2023-12-22T06:17:35;95253.19;;;1.87;93.73
72038;BME280;59900;50.788;12.904;2023-12-22T06:20:00;95253.19;;;1.87;94.13
72038;BME280;59900;50.788;12.904;2023-12-22T06:22:25;95269.72;;;1.86;94.08
72038;BME280;59900;50.788;12.904;2023-12-22T06:24:51;95260.16;;;1.87;94.54
72038;BME280;59900;50.788;12.904;2023-12-22T06:27:16;95281.06;;;1.85;93.88
72038;BME280;59900;50.788;12.904;2023-12-22T06:29:41;95312.75;;;1.87;94.42
72038;BME280;59900;50.788;12.904;2023-12-22T06:32:07;95265.13;;;1.88;94.18
72038;BME280;59900;50.788;12.904;2023-12-22T06:34:32;95249.81;;;1.87;93.94
72038;BME280;59900;50.788;12.904;2023-12-22T06:36:58;95243.63;;;1.88;94.41
72038;BME280;59900;50.788;12.904;2023-12-22T06:39:23;95251.41;;;1.88;94.06
72038;BME280;59900;50.788;12.904;2023-12-22T06:41:48;95214.13;;;1.89;93.25
72038;BME280;59900;50.788;12.904;2023-12-22T06:44:13;95247.81;;;1.89;93.48
72038;BME280;59900;50.788;12.904;2023-12-22T06:46:38;95248.41;;;1.91;92.73
72038;BME280;59900;50.788;12.904;2023-12-22T06:49:04;95244.63;;;1.93;92.72
72038;BME280;59900;50.788;12.904;2023-12-22T06:51:30;95263.56;;;1.94;92.86
72038;BME280;59900;50.788;12.904;2023-12-22T06:53:57;95229.69;;;1.95;92.95
72038;BME280;59900;50.788;12.904;2023-12-22T06:56:27;95257.78;;;1.98;92.57
72038;BME280;59900;50.788;12.904;2023-12-22T06:58:54;95259.16;;;2.01;92.33
72038;BME280;59900;50.788;12.904;2023-12-22T07:01:21;95266.75;;;2.02;91.82
72038;BME280;59900;50.788;12.904;2023-12-22T07:03:50;95250.41;;;2.02;91.82
72038;BME280;59900;50.788;12.904;2023-12-22T07:06:16;95277.72;;;2.04;91.45
72038;BME280;59900;50.788;12.904;2023-12-22T07:08:42;95264.53;;;2.06;91.15
72038;BME280;59900;50.788;12.904;2023-12-22T07:11:08;95297.22;;;2.07;90.65
72038;BME280;59900;50.788;12.904;2023-12-22T07:13:33;95282.28;;;2.09;90.37
72038;BME280;59900;50.788;12.904;2023-12-22T07:15:58;95322.13;;;2.14;89.85
72038;BME280;59900;50.788;12.904;2023-12-22T07:18:24;95290.47;;;2.19;90.32
72038;BME280;59900;50.788;12.904;2023-12-22T07:20:50;95324.97;;;2.19;90.44
72038;BME280;59900;50.788;12.904;2023-12-22T07:23:15;95281.09;;;2.18;91.81
72038;BME280;59900;50.788;12.904;2023-12-22T07:25:40;95289.66;;;2.12;92.89
72038;BME280;59900;50.788;12.904;2023-12-22T07:28:06;95295.84;;;2.11;93.85
72038;BME280;59900;50.788;12.904;2023-12-22T07:30:31;95298.44;;;2.04;95.30
72038;BME280;59900;50.788;12.904;2023-12-22T07:32:56;95332.88;;;1.98;97.54
72038;BME280;59900;50.788;12.904;2023-12-22T07:35:22;95304.97;;;1.87;100.00
72038;BME280;59900;50.788;12.904;2023-12-22T07:37:47;95296.78;;;1.77;100.00
72038;BME280;59900;50.788;12.904;2023-12-22T07:40:12;95313.28;;;1.63;100.00
72038;BME280;59900;50.788;12.904;2023-12-22T07:42:38;95319.22;;;1.57;100.00
72038;BME280;59900;50.788;12.904;2023-12-22T07:45:04;95318.59;;;1.48;100.00
72038;BME280;59900;50.788;12.904;2023-12-22T07:47:30;95328.13;;;1.41;100.00
72038;BME280;59900;50.788;12.904;2023-12-22T07:49:55;95352.97;;;1.36;100.00
72038;BME280;59900;50.788;12.904;2023-12-22T07:52:20;95375.47;;;1.29;100.00
72038;BME280;59900;50.788;12.904;2023-12-22T07:54:45;95346.56;;;1.25;100.00
72038;BME280;59900;50.788;12.904;2023-12-22T07:57:12;95360.06;;;1.21;100.00
72038;BME280;59900;50.788;12.904;2023-12-22T07:59:37;95371.22;;;1.21;100.00
72038;BME280;59900;50.788;12.904;2023-12-22T08:02:03;95372.78;;;1.16;100.00
72038;BME280;59900;50.788;12.904;2023-12-22T08:04:28;95382.31;;;1.15;100.00
72038;BME280;59900;50.788;12.904;2023-12-22T08:06:53;95366.81;;;1.15;100.00
72038;BME280;59900;50.788;12.904;2023-12-22T08:09:19;95363.41;;;1.14;100.00
72038;BME280;59900;50.788;12.904;2023-12-22T08:11:44;95383.88;;;1.09;100.00
72038;BME280;59900;50.788;12.904;2023-12-22T08:14:12;95388.69;;;1.12;100.00
72038;BME280;59900;50.788;12.904;2023-12-22T08:16:37;95388.50;;;1.14;100.00
72038;BME280;59900;50.788;12.904;2023-12-22T08:19:02;95374.59;;;1.22;100.00
72038;BME280;59900;50.788;12.904;2023-12-22T08:21:27;95378.44;;;1.26;100.00
72038;BME280;59900;50.788;12.904;2023-12-22T08:23:53;95399.94;;;1.33;100.00
72038;BME280;59900;50.788;12.904;2023-12-22T08:26:18;95399.13;;;1.32;100.00
72038;BME280;59900;50.788;12.904;2023-12-22T08:28:44;95389.84;;;1.38;100.00
72038;BME280;59900;50.788;12.904;2023-12-22T08:31:09;95400.19;;;1.44;100.00
72038;BME280;59900;50.788;12.904;2023-12-22T08:33:35;95376.94;;;1.51;100.00
72038;BME280;59900;50.788;12.904;2023-12-22T08:36:00;95390.53;;;1.59;100.00
72038;BME280;59900;50.788;12.904;2023-12-22T08:38:25;95402.69;;;1.65;99.58
72038;BME280;59900;50.788;12.904;2023-12-22T08:40:51;95429.59;;;1.71;98.83
72038;BME280;59900;50.788;12.904;2023-12-22T08:43:17;95406.13;;;1.79;99.00
72038;BME280;59900;50.788;12.904;2023-12-22T08:45:42;95417.72;;;1.83;99.15
72038;BME280;59900;50.788;12.904;2023-12-22T08:48:07;95471.09;;;1.84;100.00
72038;BME280;59900;50.788;12.904;2023-12-22T08:50:34;95387.78;;;1.74;100.00
72038;BME280;59900;50.788;12.904;2023-12-22T08:52:59;95423.19;;;1.60;100.00
72038;BME280;59900;50.788;12.904;2023-12-22T08:55:24;95438.84;;;1.46;100.00
72038;BME280;59900;50.788;12.904;2023-12-22T08:57:50;95427.81;;;1.31;100.00
72038;BME280;59900;50.788;12.904;2023-12-22T09:00:15;95460.19;;;1.27;100.00
72038;BME280;59900;50.788;12.904;2023-12-22T09:02:40;95431.53;;;1.22;100.00
72038;BME280;59900;50.788;12.904;2023-12-22T09:05:06;95427.75;;;1.24;100.00
72038;BME280;59900;50.788;12.904;2023-12-22T09:07:32;95440.69;;;1.24;100.00
72038;BME280;59900;50.788;12.904;2023-12-22T09:09:57;95488.81;;;1.19;100.00
72038;BME280;59900;50.788;12.904;2023-12-22T09:12:22;95507.50;;;1.14;100.00
72038;BME280;59900;50.788;12.904;2023-12-22T09:14:49;95486.91;;;1.06;100.00
72038;BME280;59900;50.788;12.904;2023-12-22T09:17:14;95488.47;;;1.00;100.00
72038;BME280;59900;50.788;12.904;2023-12-22T09:19:41;95543.09;;;0.91;100.00
72038;BME280;59900;50.788;12.904;2023-12-22T09:22:08;95505.97;;;0.77;100.00
72038;BME280;59900;50.788;12.904;2023-12-22T09:24:33;95526.78;;;0.69;100.00
72038;BME280;59900;50.788;12.904;2023-12-22T09:26:58;95529.84;;;0.58;100.00
72038;BME280;59900;50.788;12.904;2023-12-22T09:29:29;95466.56;;;0.54;100.00
72038;BME280;59900;50.788;12.904;2023-12-22T09:31:54;95471.94;;;0.52;100.00
72038;BME280;59900;50.788;12.904;2023-12-22T09:34:19;95471.97;;;0.59;100.00
72038;BME280;59900;50.788;12.904;2023-12-22T09:36:44;95481.59;;;0.65;100.00
72038;BME280;59900;50.788;12.904;2023-12-22T09:39:10;95491.38;;;0.70;100.00
72038;BME280;59900;50.788;12.904;2023-12-22T09:41:35;95462.59;;;0.73;100.00
72038;BME280;59900;50.788;12.904;2023-12-22T09:44:02;95511.88;;;0.71;100.00
72038;BME280;59900;50.788;12.904;2023-12-22T09:46:30;95529.13;;;0.64;100.00
72038;BME280;59900;50.788;12.904;2023-12-22T09:48:55;95502.63;;;0.62;100.00
72038;BME280;59900;50.788;12.904;2023-12-22T09:51:21;95508.16;;;0.59;100.00
72038;BME280;59900;50.788;12.904;2023-12-22T09:53:47;95488.88;;;0.55;100.00
72038;BME280;59900;50.788;12.904;2023-12-22T09:56:13;95480.75;;;0.58;100.00
72038;BME280;59900;50.788;12.904;2023-12-22T09:58:40;95501.78;;;0.55;100.00
72038;BME280;59900;50.788;12.904;2023-12-22T10:01:06;95472.56;;;0.54;100.00
72038;BME280;59900;50.788;12.904;2023-12-22T10:03:36;95464.44;;;0.57;100.00
72038;BME280;59900;50.788;12.904;2023-12-22T10:06:02;95455.50;;;0.60;100.00
72038;BME280;59900;50.788;12.904;2023-12-22T10:08:28;95450.56;;;0.65;100.00
72038;BME280;59900;50.788;12.904;2023-12-22T10:10:53;95449.22;;;0.69;100.00
72038;BME280;59900;50.788;12.904;2023-12-22T10:13:19;95457.03;;;0.76;100.00
72038;BME280;59900;50.788;12.904;2023-12-22T10:15:45;95454.09;;;0.79;100.00
72038;BME280;59900;50.788;12.904;2023-12-22T10:18:12;95472.19;;;0.79;100.00
72038;BME280;59900;50.788;12.904;2023-12-22T10:20:38;95477.16;;;0.80;100.00
72038;BME280;59900;50.788;12.904;2023-12-22T10:23:04;95470.00;;;0.82;100.00
72038;BME280;59900;50.788;12.904;2023-12-22T10:25:30;95465.84;;;0.81;100.00
72038;BME280;59900;50.788;12.904;2023-12-22T10:27:55;95486.75;;;0.86;100.00
72038;BME280;59900;50.788;12.904;2023-12-22T10:30:21;95491.78;;;0.94;100.00
72038;BME280;59900;50.788;12.904;2023-12-22T10:32:47;95507.06;;;1.10;100.00
72038;BME280;59900;50.788;12.904;2023-12-22T10:35:12;95499.75;;;1.21;100.00
72038;BME280;59900;50.788;12.904;2023-12-22T10:37:38;95496.84;;;1.30;100.00
72038;BME280;59900;50.788;12.904;2023-12-22T10:40:04;95510.44;;;1.39;100.00
72038;BME280;59900;50.788;12.904;2023-12-22T10:42:31;95483.44;;;1.48;100.00
72038;BME280;59900;50.788;12.904;2023-12-22T10:44:56;95481.69;;;1.55;100.00
72038;BME280;59900;50.788;12.904;2023-12-22T10:47:22;95485.91;;;1.62;100.00
72038;BME280;59900;50.788;12.904;2023-12-22T10:49:48;95485.16;;;1.68;100.00
72038;BME280;59900;50.788;12.904;2023-12-22T10:52:17;95463.50;;;1.76;100.00
72038;BME280;59900;50.788;12.904;2023-12-22T10:54:45;95463.34;;;1.84;100.00
72038;BME280;59900;50.788;12.904;2023-12-22T10:57:11;95471.13;;;1.91;100.00
72038;BME280;59900;50.788;12.904;2023-12-22T10:59:48;95481.50;;;1.97;100.00
72038;BME280;59900;50.788;12.904;2023-12-22T11:02:16;95487.16;;;2.07;99.98
72038;BME280;59900;50.788;12.904;2023-12-22T11:04:47;95472.03;;;2.17;99.79
72038;BME280;59900;50.788;12.904;2023-12-22T11:07:19;95461.91;;;2.22;98.02
72038;BME280;59900;50.788;12.904;2023-12-22T11:09:53;95454.91;;;2.30;97.13
72038;BME280;59900;50.788;12.904;2023-12-22T11:12:21;95466.50;;;2.34;96.95
72038;BME280;59900;50.788;12.904;2023-12-22T11:14:48;95459.31;;;2.36;96.68
72038;BME280;59900;50.788;12.904;2023-12-22T11:17:19;95464.53;;;2.42;95.44
72038;BME280;59900;50.788;12.904;2023-12-22T11:19:48;95475.91;;;2.48;94.23
72038;BME280;59900;50.788;12.904;2023-12-22T11:22:16;95479.91;;;2.57;93.81
72038;BME280;59900;50.788;12.904;2023-12-22T11:24:46;95447.03;;;2.64;92.50
72038;BME280;59900;50.788;12.904;2023-12-22T11:27:12;95430.88;;;2.68;92.69
72038;BME280;59900;50.788;12.904;2023-12-22T11:29:40;95451.03;;;2.73;91.44
72038;BME280;59900;50.788;12.904;2023-12-22T11:32:06;95448.00;;;2.76;91.22
72038;BME280;59900;50.788;12.904;2023-12-22T11:34:32;95428.88;;;2.77;90.96
72038;BME280;59900;50.788;12.904;2023-12-22T11:37:03;95412.91;;;2.80;90.51
72038;BME280;59900;50.788;12.904;2023-12-22T11:39:28;95418.50;;;2.83;90.46
72038;BME280;59900;50.788;12.904;2023-12-22T11:41:55;95420.31;;;2.83;90.64
72038;BME280;59900;50.788;12.904;2023-12-22T11:44:21;95430.50;;;2.85;90.71
72038;BME280;59900;50.788;12.904;2023-12-22T11:46:47;95417.72;;;2.90;89.31
72038;BME280;59900;50.788;12.904;2023-12-22T11:49:12;95426.31;;;2.90;90.01
72038;BME280;59900;50.788;12.904;2023-12-22T11:51:38;95445.03;;;2.92;89.08
72038;BME280;59900;50.788;12.904;2023-12-22T11:54:04;95399.34;;;2.98;87.81
72038;BME280;59900;50.788;12.904;2023-12-22T11:56:49;95408.34;;;3.02;87.61
72038;BME280;59900;50.788;12.904;2023-12-22T11:59:16;95410.72;;;3.03;87.87
72038;BME280;59900;50.788;12.904;2023-12-22T12:01:41;95439.66;;;3.07;87.56
72038;BME280;59900;50.788;12.904;2023-12-22T12:04:06;95410.72;;;3.10;87.26
72038;BME280;59900;50.788;12.904;2023-12-22T12:06:33;95420.88;;;3.11;87.65
72038;BME280;59900;50.788;12.904;2023-12-22T12:09:00;95410.50;;;3.11;87.73
72038;BME280;59900;50.788;12.904;2023-12-22T12:14:32;95377.38;;;3.07;87.79
72038;BME280;59900;50.788;12.904;2023-12-22T12:17:06;95398.53;;;3.10;87.61
72038;BME280;59900;50.788;12.904;2023-12-22T12:19:34;95393.94;;;3.12;87.09
72038;BME280;59900;50.788;12.904;2023-12-22T12:22:00;95383.38;;;3.14;87.15
72038;BME280;59900;50.788;12.904;2023-12-22T12:24:25;95390.53;;;3.18;85.46
72038;BME280;59900;50.788;12.904;2023-12-22T12:26:51;95355.41;;;3.22;85.46
72038;BME280;59900;50.788;12.904;2023-12-22T12:29:17;95366.97;;;3.26;85.28
72038;BME280;59900;50.788;12.904;2023-12-22T12:31:42;95341.22;;;3.25;85.06
72038;BME280;59900;50.788;12.904;2023-12-22T12:34:10;95334.25;;;3.25;85.78
72038;BME280;59900;50.788;12.904;2023-12-22T12:36:36;95348.00;;;3.26;86.33
72038;BME280;59900;50.788;12.904;2023-12-22T12:39:14;95335.00;;;3.26;89.00
72038;BME280;59900;50.788;12.904;2023-12-22T12:41:43;95348.84;;;3.20;89.56
72038;BME280;59900;50.788;12.904;2023-12-22T12:44:11;95345.03;;;3.16;90.14
72038;BME280;59900;50.788;12.904;2023-12-22T12:46:38;95356.22;;;3.16;90.17
72038;BME280;59900;50.788;12.904;2023-12-22T12:49:11;95351.63;;;3.12;90.23
72038;BME280;59900;50.788;12.904;2023-12-22T12:51:37;95318.09;;;3.10;90.58
72038;BME280;59900;50.788;12.904;2023-12-22T12:54:04;95324.88;;;3.11;91.17
72038;BME280;59900;50.788;12.904;2023-12-22T12:56:29;95315.28;;;3.12;90.92